KWYS Airport Information

Runway Information
Runway 01 Length 8399 ft width 150 ft
Elevation 6644 ft Threshold 0 ft Heading 26
Runway 19 Length 8399 ft Width 150 ft
Elevation 6629 ft Threshold 0 ft Heading 206
Airport Frequencies
Type CNTR Name SALT LAKE Frequency 132.4 MHZ
Type RDO Name GREAT FALL Frequency 119.4 MHZ
Type UNIC Name CTAF/UNICO Frequency 123 MHZ
Airport Navaids
Type NDB Name Targy Frequency 415 KHZ
Airport Weather Information & NOTAM
ADDS - METARS form results

(1136 UTC 21 April 2018)
 
METAR text: KWYS 211135Z AUTO 00000KT 10SM CLR M08/M08 A3018 RMK AO2
Conditions at: KWYS (WEST YELLOWSTONE, MT, US) observed 1135 UTC 21 April 2018
Temperature: -8.0°C (18°F)
Dewpoint: -8.0°C (18°F) [RH = 100%]
Pressure (altimeter): 30.18 inches Hg (1022.1 mb)
Winds: calm
Visibility: 10 or more miles (16+ km)
Ceiling: at least 12,000 feet AGL
Clouds: sky clear below 12,000 feet AGL
Weather: automated observation with no human augmentation;
there may or may not be significant weather present at this time

METAR text: KWYS 211115Z AUTO 00000KT 10SM CLR M07/M07 A3018 RMK AO2
Conditions at: KWYS (WEST YELLOWSTONE, MT, US) observed 1115 UTC 21 April 2018
Temperature: -7.0°C (19°F)
Dewpoint: -7.0°C (19°F) [RH = 100%]
Pressure (altimeter): 30.18 inches Hg (1022.1 mb)
Winds: calm
Visibility: 10 or more miles (16+ km)
Ceiling: at least 12,000 feet AGL
Clouds: sky clear below 12,000 feet AGL
Weather: automated observation with no human augmentation;
there may or may not be significant weather present at this time

METAR text: KWYS 211055Z AUTO 00000KT 10SM CLR M07/M07 A3017 RMK AO2
Conditions at: KWYS (WEST YELLOWSTONE, MT, US) observed 1055 UTC 21 April 2018
Temperature: -7.0°C (19°F)
Dewpoint: -7.0°C (19°F) [RH = 100%]
Pressure (altimeter): 30.17 inches Hg (1021.8 mb)
Winds: calm
Visibility: 10 or more miles (16+ km)
Ceiling: at least 12,000 feet AGL
Clouds: sky clear below 12,000 feet AGL
Weather: automated observation with no human augmentation;
there may or may not be significant weather present at this time